Time;durP1;ratioP1;P1;durP2;ratioP2;P2;SDS_P1;SDS_P2;PMS_P1;PMS_P2;Temp;Humidity;BMP_temperature;BMP_pressure;BME280_temperature;BME280_humidity;BME280_pressure;Samples;Min_cycle;Max_cycle;Signal;HPM_P1;HPM_P2
2023/12/25 00:00:23;;;;;;;0.52;0.52;;;;;;;8.86;80.34;92854.06;2090226;28;20449;-81
2023/12/25 00:01:24;;;;;;;0.50;0.50;;;;;;;8.75;79.16;92859.63;2102003;28;20111;-80
2023/12/25 00:02:25;;;;;;;0.47;0.40;;;;;;;8.69;81.83;92861.22;2100812;28;20029;-80
2023/12/25 00:03:26;;;;;;;1.55;0.57;;;;;;;8.83;75.60;92866.31;2098392;28;20020;-78
2023/12/25 00:04:27;;;;;;;1.05;0.40;;;;;;;8.66;82.59;92870.06;2087831;28;20032;-80
2023/12/25 00:05:28;;;;;;;0.85;0.60;;;;;;;8.89;73.89;92879.91;2090403;28;20832;-76
2023/12/25 00:06:29;;;;;;;0.50;0.50;;;;;;;8.70;77.99;92874.16;2097741;28;20047;-78
2023/12/25 00:07:30;;;;;;;0.93;0.68;;;;;;;8.76;76.28;92882.44;2097182;28;20066;-79
2023/12/25 00:08:31;;;;;;;0.73;0.70;;;;;;;8.80;79.27;92873.22;2110730;28;20256;-80
2023/12/25 00:09:32;;;;;;;0.80;0.60;;;;;;;8.78;78.69;92885.44;2102839;28;20039;-79
2023/12/25 00:10:32;;;;;;;0.90;0.40;;;;;;;8.75;77.14;92884.34;2102795;28;20515;-80
2023/12/25 00:11:33;;;;;;;0.70;0.52;;;;;;;8.78;76.80;92886.19;2100910;28;20024;-79
2023/12/25 00:12:34;;;;;;;0.80;0.80;;;;;;;8.93;69.88;92892.00;2089123;28;20063;-79
2023/12/25 00:13:43;;;;;;;0.82;0.57;;;;;;;8.99;69.32;92885.03;2089762;28;20021;-79
2023/12/25 00:14:44;;;;;;;2.35;0.68;;;;;;;8.98;68.55;92882.78;2094753;28;20721;-79
2023/12/25 00:15:45;;;;;;;1.17;0.55;;;;;;;9.06;72.16;92878.81;2096610;28;20138;-80
2023/12/25 00:16:46;;;;;;;0.70;0.70;;;;;;;8.99;66.75;92884.28;2106151;28;20047;-79
2023/12/25 00:17:47;;;;;;;2.53;0.70;;;;;;;9.09;66.93;92878.00;2097771;28;20024;-79
2023/12/25 00:18:48;;;;;;;1.00;0.60;;;;;;;9.13;70.65;92878.69;2090132;28;20032;-80
2023/12/25 00:19:49;;;;;;;3.92;0.70;;;;;;;9.04;71.95;92876.56;2097563;28;20428;-80
2023/12/25 00:20:49;;;;;;;1.63;0.70;;;;;;;8.91;72.99;92878.34;2097987;28;20476;-79
2023/12/25 00:21:50;;;;;;;1.23;0.65;;;;;;;8.76;73.10;92875.19;2101962;28;20078;-80
2023/12/25 00:22:51;;;;;;;0.50;0.50;;;;;;;8.83;75.81;92872.41;2090467;28;20040;-80
2023/12/25 00:23:53;;;;;;;0.90;0.70;;;;;;;8.88;73.15;92870.41;2079450;28;20142;-81
2023/12/25 00:24:54;;;;;;;0.77;0.50;;;;;;;8.76;73.69;92875.19;2095623;28;20051;-79
2023/12/25 00:25:55;;;;;;;0.60;0.60;;;;;;;8.62;76.75;92877.38;2105821;28;20119;-78
2023/12/25 00:26:56;;;;;;;0.70;0.50;;;;;;;8.51;81.63;92872.97;2104058;28;20020;-83
2023/12/25 00:27:57;;;;;;;0.77;0.77;;;;;;;8.37;79.56;92885.78;2089554;28;20025;-79
2023/12/25 00:28:57;;;;;;;1.48;0.55;;;;;;;8.45;77.44;92874.59;2090052;28;20119;-79
2023/12/25 00:29:58;;;;;;;0.98;0.60;;;;;;;8.52;78.87;92879.06;2105297;28;20016;-77
2023/12/25 00:30:59;;;;;;;2.33;0.90;;;;;;;8.46;76.79;92873.44;2104846;28;20039;-82
2023/12/25 00:32:00;;;;;;;0.80;0.57;;;;;;;8.44;76.17;92878.44;2104862;28;20024;-82
2023/12/25 00:33:01;;;;;;;1.52;0.60;;;;;;;8.69;70.48;92877.22;2097352;28;20035;-81
2023/12/25 00:34:02;;;;;;;1.08;0.73;;;;;;;8.69;72.32;92858.56;2089541;28;20040;-78
2023/12/25 00:35:06;;;;;;;0.63;0.55;;;;;;;8.57;71.26;92868.69;2098091;28;20097;-79
2023/12/25 00:36:07;;;;;;;0.63;0.55;;;;;;;8.92;69.36;92869.19;2100865;28;20017;-78
2023/12/25 00:37:07;;;;;;;0.82;0.55;;;;;;;8.90;73.64;92868.81;2099964;28;20521;-77
2023/12/25 00:38:08;;;;;;;1.30;0.50;;;;;;;8.60;70.97;92874.34;2100570;28;20029;-78
2023/12/25 00:39:11;;;;;;;1.65;0.65;;;;;;;8.98;67.52;92866.78;2104223;28;20071;-80
2023/12/25 00:40:12;;;;;;;1.40;0.65;;;;;;;8.88;71.86;92857.84;2084143;28;20398;-80
2023/12/25 00:41:13;;;;;;;0.77;0.60;;;;;;;8.87;68.41;92860.91;2089935;28;20032;-79
2023/12/25 00:42:14;;;;;;;0.75;0.60;;;;;;;8.75;72.49;92860.38;2098315;28;20100;-77
2023/12/25 00:43:15;;;;;;;2.72;0.77;;;;;;;8.62;75.06;92848.81;2088488;28;20151;-80
2023/12/25 00:44:16;;;;;;;0.85;0.70;;;;;;;8.66;69.74;92859.41;2097167;28;20027;-80
2023/12/25 00:45:16;;;;;;;0.90;0.68;;;;;;;8.88;66.39;92857.09;2097603;28;20020;-77
2023/12/25 00:46:17;;;;;;;1.63;0.60;;;;;;;8.47;70.64;92859.00;2097943;28;20300;-77
2023/12/25 00:47:18;;;;;;;1.30;0.60;;;;;;;8.59;72.56;92838.97;2098066;28;20028;-77
2023/12/25 00:48:20;;;;;;;0.57;0.50;;;;;;;8.45;74.42;92837.31;2097892;28;20012;-78
2023/12/25 00:49:21;;;;;;;1.05;0.60;;;;;;;8.69;70.68;92834.59;2097962;28;20089;-79
2023/12/25 00:50:22;;;;;;;0.40;0.40;;;;;;;8.67;67.81;92829.69;2097508;28;20366;-79
2023/12/25 00:51:25;;;;;;;1.10;0.57;;;;;;;8.94;65.74;92837.53;2097276;28;20440;-78
2023/12/25 00:52:25;;;;;;;2.08;0.60;;;;;;;8.89;68.32;92832.69;2090130;28;20122;-77
2023/12/25 00:53:26;;;;;;;0.77;0.60;;;;;;;8.55;70.16;92844.34;2089755;28;20021;-80
2023/12/25 00:54:29;;;;;;;0.80;0.80;;;;;;;8.26;71.86;92832.69;2089851;28;20032;-78
2023/12/25 00:55:32;;;;;;;0.60;0.60;;;;;;;8.48;71.09;92833.84;2088897;28;20032;-79
2023/12/25 00:56:32;;;;;;;1.67;0.75;;;;;;;8.26;70.27;92846.75;2089218;28;20017;-78
2023/12/25 00:57:33;;;;;;;0.90;0.52;;;;;;;8.05;74.55;92826.56;2096713;28;20028;-78
2023/12/25 00:58:35;;;;;;;1.52;0.60;;;;;;;8.14;73.34;92822.63;2114244;28;20028;-78
2023/12/25 00:59:36;;;;;;;1.27;0.80;;;;;;;8.15;76.87;92842.78;2103266;28;20019;-79
2023/12/25 01:00:37;;;;;;;2.92;0.77;;;;;;;8.28;73.03;92844.44;2103192;28;20102;-79
2023/12/25 01:01:38;;;;;;;1.05;0.75;;;;;;;8.23;75.94;92847.56;2094071;28;20049;-80
2023/12/25 01:02:39;;;;;;;0.65;0.50;;;;;;;8.38;69.01;92861.41;2095276;28;20408;-76
2023/12/25 01:03:40;;;;;;;0.90;0.60;;;;;;;8.21;73.34;92855.22;2097218;28;20812;-78
2023/12/25 01:04:41;;;;;;;0.75;0.60;;;;;;;8.23;68.95;92852.16;2089264;28;20029;-78
2023/12/25 01:05:41;;;;;;;1.30;0.57;;;;;;;8.35;71.97;92858.81;2089800;28;20044;-76
2023/12/25 01:06:42;;;;;;;1.85;0.55;;;;;;;8.40;71.43;92851.13;2105280;28;20032;-77
2023/12/25 01:07:43;;;;;;;1.63;0.70;;;;;;;8.40;68.63;92845.78;2101119;28;20024;-78
2023/12/25 01:08:44;;;;;;;0.95;0.60;;;;;;;8.36;67.96;92844.31;2106254;28;20024;-79
2023/12/25 01:09:45;;;;;;;0.50;0.50;;;;;;;8.45;68.42;92853.31;2099612;28;20024;-78
2023/12/25 01:10:46;;;;;;;0.50;0.40;;;;;;;8.39;70.93;92852.28;2092206;28;20484;-79
2023/12/25 01:11:47;;;;;;;1.80;0.50;;;;;;;8.41;71.73;92852.63;2089023;28;20032;-78
2023/12/25 01:12:48;;;;;;;0.50;0.50;;;;;;;8.39;68.76;92852.28;2089238;28;20032;-77
2023/12/25 01:13:49;;;;;;;0.63;0.60;;;;;;;8.24;69.21;92848.31;2098024;28;20073;-76
2023/12/25 01:14:50;;;;;;;1.50;0.50;;;;;;;8.25;70.43;92849.81;2081153;28;20386;-79
2023/12/25 01:16:04;;;;;;;1.08;0.60;;;;;;;8.27;70.96;92852.84;2080885;28;20614;-78
2023/12/25 01:17:05;;;;;;;0.50;0.50;;;;;;;8.10;70.84;92824.59;2082988;28;20033;-80
2023/12/25 01:18:07;;;;;;;1.20;0.70;;;;;;;8.15;70.61;92846.19;2089462;28;20094;-78
2023/12/25 01:19:08;;;;;;;1.05;0.60;;;;;;;8.34;69.89;92850.06;2088482;28;20094;-79
2023/12/25 01:20:09;;;;;;;0.73;0.60;;;;;;;8.41;70.64;92859.84;2097333;28;20028;-79
2023/12/25 01:21:10;;;;;;;1.38;0.60;;;;;;;8.30;68.61;92834.13;2096817;28;20028;-79
2023/12/25 01:22:11;;;;;;;0.88;0.50;;;;;;;8.27;71.53;92842.19;2089032;28;20021;-78
2023/12/25 01:23:12;;;;;;;0.60;0.50;;;;;;;8.40;68.57;92851.13;2089426;28;20112;-79
2023/12/25 01:24:13;;;;;;;0.90;0.47;;;;;;;8.56;64.43;92853.88;2080812;28;20056;-81
2023/12/25 01:25:13;;;;;;;1.88;0.50;;;;;;;8.51;66.88;92837.59;2088716;28;20056;-79
2023/12/25 01:26:14;;;;;;;0.80;0.80;;;;;;;8.62;65.56;92838.16;2098169;28;20020;-78
2023/12/25 01:27:15;;;;;;;3.03;0.60;;;;;;;8.54;66.93;92837.53;2097391;28;20074;-78
2023/12/25 01:28:16;;;;;;;0.40;0.40;;;;;;;8.45;66.65;92837.31;2080941;28;20029;-77
2023/12/25 01:29:17;;;;;;;0.77;0.63;;;;;;;8.42;68.80;92832.81;2089553;28;20059;-78
2023/12/25 01:30:18;;;;;;;1.48;0.73;;;;;;;8.20;69.36;92840.38;2101967;28;20106;-80
2023/12/25 01:31:19;;;;;;;3.05;0.60;;;;;;;8.22;69.03;92843.41;2099126;28;20024;-78
2023/12/25 01:32:20;;;;;;;0.90;0.50;;;;;;;8.27;67.32;92842.19;2098005;28;20020;-79
2023/12/25 01:33:21;;;;;;;1.85;0.60;;;;;;;8.11;68.29;92850.06;2088266;28;20044;-79
2023/12/25 01:34:22;;;;;;;0.70;0.50;;;;;;;8.37;63.65;92846.59;2097723;28;20032;-79
2023/12/25 01:35:23;;;;;;;3.03;0.50;;;;;;;8.45;64.48;92836.56;2100283;28;20476;-79
2023/12/25 01:36:25;;;;;;;0.50;0.50;;;;;;;8.22;67.31;92845.31;2100294;28;20024;-77
2023/12/25 01:37:26;;;;;;;1.20;0.55;;;;;;;8.33;68.65;92841.28;2098933;28;20028;-78
2023/12/25 01:38:27;;;;;;;0.60;0.57;;;;;;;8.12;67.46;92852.34;2103319;28;20028;-77
2023/12/25 01:39:28;;;;;;;0.70;0.43;;;;;;;8.08;68.19;92868.38;2102962;28;20036;-78
2023/12/25 01:40:28;;;;;;;0.65;0.45;;;;;;;8.01;65.89;92852.50;2104053;28;20024;-78
2023/12/25 01:41:29;;;;;;;1.35;0.52;;;;;;;8.14;63.95;92852.66;2099097;28;20031;-79
2023/12/25 01:42:30;;;;;;;0.90;0.50;;;;;;;8.21;63.95;92859.78;2096957;28;20031;-78
2023/12/25 01:43:31;;;;;;;1.75;0.50;;;;;;;8.39;62.83;92865.59;2096567;28;20082;-80
2023/12/25 01:44:32;;;;;;;3.17;0.60;;;;;;;8.56;62.37;92855.78;2097009;28;20875;-81
2023/12/25 01:45:33;;;;;;;0.75;0.50;;;;;;;8.36;65.16;92865.63;2088454;28;20028;-78
2023/12/25 01:46:34;;;;;;;1.38;0.52;;;;;;;8.03;68.95;92862.72;2089364;28;20021;-80
2023/12/25 01:47:36;;;;;;;0.50;0.50;;;;;;;8.14;66.16;92862.56;2088922;28;20028;-79
2023/12/25 01:48:39;;;;;;;2.08;0.60;;;;;;;7.96;68.49;92852.97;2097123;28;20057;-79
2023/12/25 01:49:41;;;;;;;1.25;0.70;;;;;;;8.04;64.71;92861.59;2098305;28;20020;-80
2023/12/25 01:50:43;;;;;;;1.67;0.57;;;;;;;8.17;65.81;92854.53;2102530;28;20062;-79
2023/12/25 01:51:44;;;;;;;1.55;0.60;;;;;;;8.18;66.87;92853.38;2100916;28;20031;-77
2023/12/25 01:52:45;;;;;;;0.75;0.50;;;;;;;8.16;68.58;92854.91;2097732;28;20026;-79
2023/12/25 01:53:46;;;;;;;1.38;0.55;;;;;;;8.23;67.56;92854.81;2090569;28;20021;-79
2023/12/25 01:54:48;;;;;;;0.35;0.35;;;;;;;8.13;66.07;92855.75;2096807;28;20016;-78
2023/12/25 01:55:49;;;;;;;0.95;0.47;;;;;;;8.06;66.75;92851.28;2105282;28;20385;-78
2023/12/25 01:56:51;;;;;;;0.45;0.40;;;;;;;8.04;67.41;92846.38;2105143;28;20062;-79
2023/12/25 01:57:52;;;;;;;1.80;0.68;;;;;;;7.97;66.87;92845.72;2088665;28;20029;-79
2023/12/25 01:58:53;;;;;;;0.45;0.40;;;;;;;8.19;65.82;92848.78;2097578;28;20381;-81
2023/12/25 01:59:54;;;;;;;0.70;0.50;;;;;;;8.05;68.54;92858.53;2107535;28;20015;-77
2023/12/25 02:00:55;;;;;;;0.63;0.50;;;;;;;8.04;65.96;92843.72;2099887;28;20024;-79
2023/12/25 02:01:58;;;;;;;1.35;0.50;;;;;;;8.13;63.30;92856.50;2102535;28;20063;-77
2023/12/25 02:03:00;;;;;;;3.78;0.70;;;;;;;8.16;61.21;92830.97;2100312;28;20127;-78
2023/12/25 02:04:01;;;;;;;1.02;0.50;;;;;;;8.29;63.83;92840.59;2088992;28;20025;-80
2023/12/25 02:05:02;;;;;;;1.13;0.57;;;;;;;8.25;63.94;92839.94;2099311;28;20020;-78
2023/12/25 02:06:05;;;;;;;1.27;0.52;;;;;;;8.25;62.45;92841.81;2101660;28;20381;-79
2023/12/25 02:07:07;;;;;;;0.50;0.40;;;;;;;8.17;62.06;92833.22;2100188;28;20546;-79
2023/12/25 02:08:13;;;;;;;0.65;0.40;;;;;;;8.07;65.04;92836.81;2100900;28;20024;-78
2023/12/25 02:09:14;;;;;;;0.93;0.50;;;;;;;8.21;61.43;92843.78;2099112;28;20032;-79
2023/12/25 02:10:28;;;;;;;1.90;0.60;;;;;;;8.38;62.37;92828.69;2102200;28;20016;-79
2023/12/25 02:11:29;;;;;;;0.65;0.60;;;;;;;8.28;64.87;92830.38;2097688;28;20028;-79
2023/12/25 02:12:30;;;;;;;0.50;0.50;;;;;;;8.28;64.53;92830.38;2096926;28;20066;-78
2023/12/25 02:13:31;;;;;;;0.68;0.50;;;;;;;8.03;62.60;92831.56;2104811;28;20243;-80
2023/12/25 02:14:32;;;;;;;0.68;0.63;;;;;;;8.21;60.50;92833.16;2105461;28;20051;-79
2023/12/25 02:15:33;;;;;;;2.00;0.52;;;;;;;8.33;61.98;92835.97;2105827;28;20110;-78
2023/12/25 02:16:36;;;;;;;0.40;0.40;;;;;;;8.36;61.84;92821.09;2106088;28;20469;-79
2023/12/25 02:17:37;;;;;;;0.40;0.40;;;;;;;8.28;62.41;92838.34;2106380;28;20020;-77
2023/12/25 02:18:38;;;;;;;0.55;0.43;;;;;;;8.36;63.99;92833.66;2100885;28;20055;-81
2023/12/25 02:19:43;;;;;;;0.80;0.63;;;;;;;8.12;62.72;92832.94;2096259;28;20699;-80
2023/12/25 02:20:44;;;;;;;0.85;0.60;;;;;;;8.21;63.80;92828.59;2097343;28;20704;-78
2023/12/25 02:21:45;;;;;;;1.02;0.60;;;;;;;8.10;62.82;92840.59;2097853;28;20051;-78
2023/12/25 02:22:47;;;;;;;1.77;0.50;;;;;;;8.18;61.28;92823.34;2105717;28;20097;-80
2023/12/25 02:25:19;;;;;;;;;;;;;;;8.22;61.95;92822.09;2148242;27;20569;-80
2023/12/25 02:26:20;;;;;;;0.82;0.55;;;;;;;8.25;62.81;92837.28;2138224;27;19911;-82
2023/12/25 02:27:21;;;;;;;1.55;0.55;;;;;;;8.30;63.90;92831.47;2129685;27;20026;-81
2023/12/25 02:28:32;;;;;;;0.75;0.57;;;;;;;8.42;59.79;92821.41;2138641;27;20521;-77
2023/12/25 02:29:34;;;;;;;0.90;0.60;;;;;;;8.71;57.25;92835.69;2130620;27;20458;-79
2023/12/25 02:30:35;;;;;;;1.20;0.45;;;;;;;8.64;59.45;92824.41;2124498;27;20027;-80
2023/12/25 02:31:36;;;;;;;1.00;0.50;;;;;;;8.51;61.81;92825.03;2122335;27;20058;-78
2023/12/25 02:32:37;;;;;;;0.85;0.45;;;;;;;8.61;61.61;92828.66;2121021;27;20027;-81
2023/12/25 02:33:38;;;;;;;2.20;0.45;;;;;;;8.66;60.26;92830.09;2120961;27;20027;-80
2023/12/25 02:34:39;;;;;;;0.50;0.50;;;;;;;8.61;62.20;92828.66;2132138;27;20018;-77
2023/12/25 02:35:40;;;;;;;0.85;0.60;;;;;;;8.44;60.45;92827.09;2141552;27;20022;-78
2023/12/25 02:36:41;;;;;;;2.65;0.63;;;;;;;8.44;60.24;92827.84;2131235;27;20031;-78
2023/12/25 02:37:42;;;;;;;0.85;0.40;;;;;;;8.48;59.84;92825.09;2119496;28;20076;-79
2023/12/25 02:38:43;;;;;;;0.45;0.40;;;;;;;8.29;58.58;92835.28;2126346;27;20427;-81
2023/12/25 02:39:44;;;;;;;0.50;0.50;;;;;;;8.52;58.76;92821.22;2133947;27;20101;-79
2023/12/25 02:40:45;;;;;;;1.13;0.60;;;;;;;8.48;59.62;92822.44;2140277;27;20018;-79
2023/12/25 02:41:46;;;;;;;0.68;0.50;;;;;;;8.51;60.02;92835.69;2130014;27;20054;-80
2023/12/25 02:42:47;;;;;;;1.05;0.50;;;;;;;8.43;59.71;92831.66;2111968;28;20024;-80
2023/12/25 02:43:48;;;;;;;0.55;0.47;;;;;;;8.48;58.31;92839.19;2120653;27;20038;-79
2023/12/25 02:44:49;;;;;;;0.57;0.50;;;;;;;8.51;58.53;92832.25;2128858;27;20026;-80
2023/12/25 02:45:50;;;;;;;0.75;0.50;;;;;;;8.47;58.75;92839.56;2117822;27;20675;-80
2023/12/25 02:46:50;;;;;;;0.65;0.52;;;;;;;8.47;59.68;92834.25;2129804;27;20030;-83
2023/12/25 02:47:51;;;;;;;0.55;0.40;;;;;;;8.50;60.26;92838.75;2138644;27;20022;-80
2023/12/25 02:49:09;;;;;;;0.60;0.60;;;;;;;8.53;56.80;92835.28;2129499;27;20027;-81
2023/12/25 02:50:09;;;;;;;0.40;0.40;;;;;;;8.73;57.09;92828.03;2131682;27;20023;-78
2023/12/25 02:51:10;;;;;;;0.50;0.50;;;;;;;8.49;59.41;92826.59;2136796;27;20022;-79
2023/12/25 02:52:11;;;;;;;0.68;0.50;;;;;;;8.21;58.46;92830.47;2138339;27;20025;-79
2023/12/25 02:53:12;;;;;;;1.85;0.60;;;;;;;8.29;59.97;92834.53;2130135;27;20394;-82
2023/12/25 02:54:13;;;;;;;0.85;0.50;;;;;;;8.43;58.21;92834.31;2129743;27;20034;-81
2023/12/25 02:55:14;;;;;;;0.90;0.68;;;;;;;8.24;57.75;92824.34;2137783;27;20034;-81
2023/12/25 02:56:15;;;;;;;2.38;0.60;;;;;;;8.33;58.95;92835.22;2129272;27;20023;-81
2023/12/25 02:57:16;;;;;;;0.70;0.60;;;;;;;8.29;57.07;92837.19;2128406;27;20023;-78
2023/12/25 02:58:17;;;;;;;1.15;0.60;;;;;;;8.30;58.13;92838.72;2121485;27;20023;-79
2023/12/25 02:59:18;;;;;;;0.60;0.40;;;;;;;8.24;57.00;92827.03;2124236;27;20031;-80
2023/12/25 03:00:19;;;;;;;0.80;0.40;;;;;;;8.45;56.58;92831.25;2073638;27;23274;-79
2023/12/25 03:01:20;;;;;;;0.85;0.43;;;;;;;8.33;58.91;92835.97;2042755;27;20050;-79
2023/12/25 03:02:21;;;;;;;0.43;0.43;;;;;;;8.28;59.10;92825.03;2055267;27;20026;-79
2023/12/25 03:03:22;;;;;;;0.40;0.40;;;;;;;8.21;59.10;92830.47;2056881;27;20158;-79
2023/12/25 03:04:23;;;;;;;2.83;0.43;;;;;;;8.15;59.56;92834.78;2069701;27;20474;-80
2023/12/25 03:05:24;;;;;;;0.60;0.55;;;;;;;8.27;59.03;92837.63;2054260;27;20191;-80
2023/12/25 03:06:25;;;;;;;1.77;0.75;;;;;;;8.55;53.79;92828.38;2048920;27;20032;-79
2023/12/25 03:07:26;;;;;;;0.77;0.57;;;;;;;8.55;54.86;92831.03;2069098;27;20173;-80
2023/12/25 03:08:27;;;;;;;0.55;0.40;;;;;;;8.32;57.35;92823.06;2081875;27;20438;-79
2023/12/25 03:09:30;;;;;;;0.65;0.50;;;;;;;8.37;55.27;92824.53;2094483;27;20026;-79
2023/12/25 03:10:31;;;;;;;0.50;0.50;;;;;;;8.57;55.80;92823.41;2086505;27;20041;-78
2023/12/25 03:11:32;;;;;;;0.52;0.30;;;;;;;8.45;56.58;92825.91;2095991;27;20027;-78
2023/12/25 03:12:32;;;;;;;0.75;0.40;;;;;;;8.45;56.28;92818.69;2107590;27;20396;-78
2023/12/25 03:13:34;;;;;;;0.30;0.30;;;;;;;8.54;55.22;92820.81;2113192;27;20076;-80
2023/12/25 03:14:35;;;;;;;0.82;0.40;;;;;;;8.46;54.86;92820.16;2124772;27;20791;-78
2023/12/25 03:15:37;;;;;;;2.40;0.40;;;;;;;8.58;54.08;92813.50;2128974;27;20022;-79
2023/12/25 03:16:38;;;;;;;0.40;0.40;;;;;;;8.40;55.00;92819.16;2138855;27;20018;-78
2023/12/25 03:17:39;;;;;;;0.30;0.30;;;;;;;8.11;56.76;92810.88;2127817;27;20064;-79
2023/12/25 03:18:39;;;;;;;0.50;0.50;;;;;;;8.08;56.68;92830.34;2120641;27;20031;-78
2023/12/25 03:19:40;;;;;;;0.45;0.40;;;;;;;8.20;54.01;92824.41;2126936;27;20022;-79
2023/12/25 03:20:41;;;;;;;0.40;0.40;;;;;;;8.48;54.97;92809.88;2120335;28;20046;-79
2023/12/25 03:21:42;;;;;;;0.50;0.50;;;;;;;8.56;53.94;92807.84;2129089;27;20030;-79
2023/12/25 03:22:44;;;;;;;1.20;0.40;;;;;;;8.51;54.48;92813.63;2130271;27;20023;-79
2023/12/25 03:23:45;;;;;;;0.73;0.45;;;;;;;8.35;53.48;92822.28;2131839;27;20026;-80
2023/12/25 03:24:46;;;;;;;0.50;0.50;;;;;;;8.36;54.31;92807.03;2117957;28;20059;-78
2023/12/25 03:25:47;;;;;;;0.93;0.43;;;;;;;8.30;54.78;92809.44;2111411;28;20038;-78
2023/12/25 03:26:49;;;;;;;0.70;0.60;;;;;;;8.20;55.23;92799.69;2127373;27;20785;-80
2023/12/25 03:27:50;;;;;;;1.77;0.63;;;;;;;8.20;57.19;92802.38;2035579;27;20097;-79
2023/12/25 03:28:51;;;;;;;1.08;0.45;;;;;;;8.01;56.93;92809.91;2039247;27;20023;-80
2023/12/25 03:29:52;;;;;;;1.10;0.40;;;;;;;8.11;55.60;92812.78;2060713;27;20079;-79
2023/12/25 03:30:54;;;;;;;0.50;0.50;;;;;;;8.11;57.55;92804.81;2066638;27;20073;-79
2023/12/25 03:31:55;;;;;;;0.80;0.40;;;;;;;8.20;55.77;92813.00;2058960;27;20460;-80
2023/12/25 03:32:56;;;;;;;0.57;0.47;;;;;;;8.22;55.24;92805.38;2060708;27;20783;-82
2023/12/25 03:33:58;;;;;;;0.98;0.52;;;;;;;8.21;55.29;92801.19;2065013;28;20103;-78
2023/12/25 03:34:59;;;;;;;0.50;0.47;;;;;;;8.31;53.71;92809.00;2058309;28;22141;-80
2023/12/25 03:36:00;;;;;;;0.40;0.40;;;;;;;8.37;53.76;92808.56;2069045;28;20829;-78
2023/12/25 03:37:02;;;;;;;0.40;0.40;;;;;;;8.27;56.20;92812.91;2079721;27;20027;-79
2023/12/25 03:38:03;;;;;;;0.40;0.40;;;;;;;8.23;55.36;92820.19;2089555;27;20444;-79
2023/12/25 03:39:04;;;;;;;0.43;0.43;;;;;;;8.27;52.61;92810.97;2106058;27;20156;-79
2023/12/25 03:40:06;;;;;;;0.43;0.30;;;;;;;8.38;52.51;92812.72;2105265;27;20024;-78
2023/12/25 03:41:08;;;;;;;0.50;0.47;;;;;;;8.36;52.99;92807.78;2116798;27;20143;-80
2023/12/25 03:42:09;;;;;;;0.43;0.40;;;;;;;8.34;53.12;92810.13;2112052;28;20042;-77
2023/12/25 03:43:10;;;;;;;0.40;0.40;;;;;;;8.22;53.90;92805.38;2105579;28;20117;-80
2023/12/25 03:44:11;;;;;;;0.30;0.30;;;;;;;8.30;54.50;92801.44;2106329;28;20499;-78
2023/12/25 03:45:12;;;;;;;0.40;0.40;;;;;;;8.20;53.88;92800.44;2097188;28;20498;-80
2023/12/25 03:46:13;;;;;;;0.40;0.40;;;;;;;8.30;53.89;92812.84;2110614;28;20046;-79
2023/12/25 03:47:14;;;;;;;0.30;0.30;;;;;;;8.27;53.39;92807.56;2114714;28;20020;-79
2023/12/25 03:48:16;;;;;;;0.40;0.40;;;;;;;8.18;55.94;92796.72;2114853;28;20035;-79
2023/12/25 03:49:17;;;;;;;0.50;0.50;;;;;;;8.16;55.09;92791.03;2106583;28;20049;-78
2023/12/25 03:50:18;;;;;;;0.77;0.60;;;;;;;8.34;54.57;92796.81;2098073;28;20082;-77
2023/12/25 03:51:19;;;;;;;0.50;0.40;;;;;;;8.37;53.55;92798.66;2114409;28;20082;-80
2023/12/25 03:52:19;;;;;;;0.50;0.50;;;;;;;8.37;54.58;92789.91;2124418;27;20080;-79
2023/12/25 03:53:20;;;;;;;0.50;0.50;;;;;;;8.17;53.98;92795.22;2123232;27;20072;-79
2023/12/25 03:54:22;;;;;;;0.50;0.50;;;;;;;8.16;53.61;92804.34;2111018;28;20031;-80
2023/12/25 03:55:23;;;;;;;0.40;0.40;;;;;;;8.17;54.07;92806.63;2105375;28;20550;-79
2023/12/25 03:56:26;;;;;;;0.52;0.40;;;;;;;8.24;53.57;92803.81;2106539;28;20024;-80
2023/12/25 03:57:27;;;;;;;0.77;0.50;;;;;;;8.03;55.72;92812.16;2108237;27;20019;-78
2023/12/25 03:58:28;;;;;;;0.40;0.40;;;;;;;8.06;54.35;92806.03;2122642;27;20463;-80
2023/12/25 03:59:29;;;;;;;2.25;0.40;;;;;;;7.89;55.66;92801.75;2114855;28;20019;-79
2023/12/25 04:00:30;;;;;;;0.43;0.43;;;;;;;7.85;54.60;92809.06;2121825;27;20015;-80
2023/12/25 04:01:31;;;;;;;1.10;0.45;;;;;;;7.97;54.89;92809.22;2129063;27;20130;-80
2023/12/25 04:02:32;;;;;;;0.80;0.50;;;;;;;8.03;55.11;92807.63;2107638;28;20032;-78
2023/12/25 04:03:33;;;;;;;0.50;0.50;;;;;;;7.93;54.01;92813.84;2105970;28;20028;-79
2023/12/25 04:04:34;;;;;;;0.60;0.43;;;;;;;8.08;56.58;92806.41;2123505;27;20027;-81
2023/12/25 04:05:34;;;;;;;1.55;0.40;;;;;;;8.08;54.84;92807.13;2131427;27;20071;-78
2023/12/25 04:06:35;;;;;;;0.63;0.50;;;;;;;8.01;54.90;92812.56;2110105;28;20047;-81
2023/12/25 04:07:36;;;;;;;1.10;0.60;;;;;;;8.14;53.36;92810.09;2092083;28;20126;-79
2023/12/25 04:08:37;;;;;;;0.35;0.35;;;;;;;8.16;54.97;92810.41;2112911;28;20020;-78
2023/12/25 04:09:38;;;;;;;0.85;0.55;;;;;;;7.84;54.81;92826.94;2071976;27;20834;-80
2023/12/25 04:10:39;;;;;;;0.70;0.45;;;;;;;7.99;53.62;92816.78;2031018;28;21896;-79
2023/12/25 04:11:40;;;;;;;0.50;0.40;;;;;;;7.89;53.83;92805.16;2038569;28;20138;-78
2023/12/25 04:12:41;;;;;;;0.40;0.40;;;;;;;7.93;55.66;92813.84;2037771;28;20063;-78
2023/12/25 04:13:42;;;;;;;0.47;0.47;;;;;;;8.00;52.65;92819.06;2045127;27;23272;-80
2023/12/25 04:14:43;;;;;;;1.27;0.52;;;;;;;7.90;57.06;92819.22;2052716;27;20136;-80
2023/12/25 04:15:44;;;;;;;0.40;0.40;;;;;;;7.75;54.75;92819.47;2053112;27;20023;-79
2023/12/25 04:16:45;;;;;;;0.50;0.50;;;;;;;7.76;56.14;92804.25;2058959;27;20084;-80
2023/12/25 04:17:46;;;;;;;0.32;0.32;;;;;;;7.83;56.41;92812.13;2065277;28;20053;-78
2023/12/25 04:18:47;;;;;;;0.50;0.30;;;;;;;7.90;53.78;92805.91;2069294;28;20027;-79
2023/12/25 04:19:48;;;;;;;0.75;0.40;;;;;;;8.03;52.92;92812.16;2080460;28;20118;-78
2023/12/25 04:20:56;;;;;;;0.85;0.40;;;;;;;8.13;54.06;92805.91;2091410;27;20030;-79
2023/12/25 04:21:57;;;;;;;0.50;0.40;;;;;;;8.22;54.57;92805.38;2090565;28;20389;-78
2023/12/25 04:22:58;;;;;;;0.43;0.40;;;;;;;7.98;53.60;92800.06;2094515;28;20034;-78
2023/12/25 04:24:00;;;;;;;0.40;0.40;;;;;;;7.99;53.54;92806.16;2112047;27;20047;-79
2023/12/25 04:25:01;;;;;;;0.43;0.40;;;;;;;8.10;55.30;92808.63;2121014;27;20050;-79
2023/12/25 04:26:02;;;;;;;0.50;0.50;;;;;;;7.92;54.34;92808.94;2123466;27;20391;-79
2023/12/25 04:27:03;;;;;;;1.48;0.40;;;;;;;7.94;53.62;92803.94;2114331;28;20103;-79
2023/12/25 04:28:04;;;;;;;0.40;0.40;;;;;;;8.17;53.32;92808.53;2107933;28;20024;-77
2023/12/25 04:29:05;;;;;;;0.73;0.50;;;;;;;8.21;51.85;92811.84;2101127;28;20024;-80
2023/12/25 04:30:06;;;;;;;1.48;0.50;;;;;;;8.13;52.30;92813.91;2111649;28;20093;-79
2023/12/25 04:31:07;;;;;;;0.47;0.47;;;;;;;7.97;55.52;92809.22;2057547;27;20040;-80
2023/12/25 04:32:09;;;;;;;0.70;0.55;;;;;;;8.03;53.72;92806.84;2025491;28;20028;-80
2023/12/25 04:33:10;;;;;;;0.82;0.40;;;;;;;7.99;54.29;92808.81;2035886;28;21171;-78
2023/12/25 04:34:11;;;;;;;0.70;0.63;;;;;;;8.05;53.61;92809.84;2046192;27;20062;-79
2023/12/25 04:35:12;;;;;;;0.40;0.40;;;;;;;7.96;52.83;92807.72;2055115;27;20119;-77
2023/12/25 04:36:13;;;;;;;0.40;0.40;;;;;;;7.94;53.64;92809.28;2057478;27;20030;-78
2023/12/25 04:37:14;;;;;;;0.50;0.50;;;;;;;8.04;52.92;92803.78;2063414;28;20122;-80
2023/12/25 04:38:15;;;;;;;0.65;0.60;;;;;;;8.14;52.27;92809.34;2070554;27;20035;-80
2023/12/25 04:39:16;;;;;;;1.77;0.52;;;;;;;7.97;55.28;92801.25;2058355;28;20115;-78
2023/12/25 04:40:17;;;;;;;0.45;0.40;;;;;;;8.03;53.32;92794.31;2062528;28;20489;-77
2023/12/25 04:41:22;;;;;;;0.95;0.70;;;;;;;7.81;55.00;92801.13;2067748;28;20529;-78
2023/12/25 04:42:23;;;;;;;0.40;0.40;;;;;;;7.89;53.85;92793.78;2071777;28;20036;-78
2023/12/25 04:43:24;;;;;;;0.40;0.40;;;;;;;7.75;55.25;92787.53;2085127;28;20020;-79
2023/12/25 04:44:25;;;;;;;0.52;0.40;;;;;;;7.73;55.87;92795.19;2107074;27;20380;-78
2023/12/25 04:45:26;;;;;;;0.73;0.50;;;;;;;7.76;54.10;92793.59;2097672;27;20080;-80
2023/12/25 04:46:27;;;;;;;0.93;0.40;;;;;;;7.80;54.01;92796.97;2100256;27;20169;-81
2023/12/25 04:47:28;;;;;;;0.50;0.50;;;;;;;7.63;56.35;92787.34;2117771;27;20042;-79
2023/12/25 04:48:29;;;;;;;0.40;0.40;;;;;;;7.71;53.40;92792.16;2106582;27;20716;-78
2023/12/25 04:49:32;;;;;;;0.40;0.40;;;;;;;7.70;55.21;92790.66;2107530;28;20034;-78
2023/12/25 04:50:33;;;;;;;0.30;0.30;;;;;;;7.87;52.80;92786.22;2114090;28;20028;-78
2023/12/25 04:51:34;;;;;;;0.40;0.40;;;;;;;7.83;54.18;92782.84;2120637;27;20031;-79
2023/12/25 04:52:37;;;;;;;0.65;0.50;;;;;;;7.76;54.89;92783.72;2123934;27;20395;-78
2023/12/25 04:53:38;;;;;;;0.45;0.45;;;;;;;7.46;54.12;92776.63;2126584;27;20019;-81